Clayton Lake, ME (04737)

2:00 PM EDT on March 30, 2017 (GMT -0400)
Northern Maine Regional At Presque Isle | | Change Station

Elev 531 ft 46.69 °N, 68.04 °W | Updated 4 minutes ago

Overcast
Overcast
34 °F
Feels Like 22 °F
N
23
Wind Variable Wind from NNW
Gusts 28 mph

Today
High -- | Low -- °F
--% Chance of Precip.
Yesterday
High -- | Low -- °F
Precip. -- in
Pressure 30.26 in
Visibility 10.0 miles
Clouds Mostly Cloudy 4000 ft
Overcast 4800 ft
Windchill 22 °F
Dew Point 19 °F
Humidity 54%
Rainfall 0.00 in
Snow Depth Not available.
6:20 AM 7:04 PM
Waxing Crescent, 10% visible
METAR KPQI 301756Z AUTO 33020G24KT 10SM BKN040 OVC048 01/M07 A3012 RMK AO2 SLP245 60000 T00111072 10017 21022 58004 FZRANO
Pressure 30.26 in
Visibility 10.0 miles
Clouds Mostly Cloudy 4000 ft
Overcast 4800 ft
Windchill 22 °F
Dew Point 19 °F
Humidity 54%
Rainfall 0.00 in
Snow Depth Not available.
6:20 AM 7:04 PM
Waxing Crescent, 10% visible
METAR KPQI 301756Z AUTO 33020G24KT 10SM BKN040 OVC048 01/M07 A3012 RMK AO2 SLP245 60000 T00111072 10017 21022 58004 FZRANO

Get Severe Weather Alerts

Thanks for signing up!

Be on the lookout for a verification email in your inbox.

You'll start receiving the daily forecast at 8 AM.

×

10-Day Weather Forecast

Almanac

Astronomy

Mar. 30, 2017 Rise Set
Actual Time
Civil Twilight
Nautical Twilight
Astronomical Twilight
Moon
Length of Visible Light
Length of Day
Tomorrow will be .
, % of the Moon is Illuminated

Today's Extremes

State Highs State Lows

Community

WunderPhotos

Upload Photos

1,962,540 photos uploaded!

WunderBlog® & News

Nearby

Air Quality

  Air Quality AQ Index Pollutant
Not available.

Snow Depth

Station Depth Elevation

Earthquake Activity

City Distance Mag. Time & Date
Minimum magnitude displayed is 2.5.

Earthquake Activity

City Distance Mag. Time & Date
Minimum magnitude displayed is 2.5.

Coastal Water Temperatures

Place Temperature

Stations

Nearby Weather Stations

Station Location Temp. Windchill Dew Point Humidity Wind Precip. Elev Updated Type
                   

Watches & Warnings

There are currently no watches in effect.